createdAt,value
2022-12-31T00:02:26.546Z,5.8
2022-12-31T00:05:07.880Z,5.9
2022-12-31T00:10:08.802Z,5.9
2022-12-31T00:12:39.531Z,5.9
2022-12-31T00:15:10.295Z,6.0
2022-12-31T00:17:51.032Z,6.0
2022-12-31T00:20:21.796Z,6.0
2022-12-31T00:22:52.557Z,6.1
2022-12-31T00:25:23.337Z,6.1
2022-12-31T00:27:54.104Z,6.1
2022-12-31T00:30:24.896Z,6.1
2022-12-31T00:33:05.906Z,6.0
2022-12-31T00:35:36.671Z,6.0
2022-12-31T00:38:07.444Z,6.0
2022-12-31T00:40:38.278Z,6.1
2022-12-31T00:43:09.082Z,6.1
2022-12-31T00:45:39.931Z,6.2
2022-12-31T00:50:50.943Z,6.3
2022-12-31T00:53:21.714Z,6.2
2022-12-31T00:55:52.484Z,6.3
2022-12-31T00:58:23.230Z,6.2
2022-12-31T01:00:54.025Z,6.4
2022-12-31T01:03:35.186Z,6.4
2022-12-31T01:06:05.935Z,6.5
2022-12-31T01:08:36.706Z,6.4
2022-12-31T01:11:07.518Z,6.4
2022-12-31T01:13:38.296Z,6.4
2022-12-31T01:16:09.119Z,6.4
2022-12-31T01:18:49.929Z,6.4
2022-12-31T01:21:20.688Z,6.3
2022-12-31T01:23:51.466Z,6.3
2022-12-31T01:26:22.213Z,6.3
2022-12-31T01:31:33.134Z,6.4
2022-12-31T01:34:03.897Z,6.4
2022-12-31T01:36:34.676Z,6.4
2022-12-31T01:39:05.435Z,6.4
2022-12-31T01:41:36.179Z,6.4
2022-12-31T01:44:06.944Z,6.5
2022-12-31T01:46:47.725Z,6.4
2022-12-31T01:49:18.488Z,6.5
2022-12-31T01:51:49.255Z,6.5
2022-12-31T01:54:20.029Z,6.6
2022-12-31T01:56:50.822Z,6.7
2022-12-31T01:59:21.599Z,6.6
2022-12-31T02:02:02.498Z,6.6
2022-12-31T02:04:33.752Z,6.6
2022-12-31T02:07:04.595Z,6.6
2022-12-31T02:12:05.562Z,6.6
2022-12-31T02:14:36.313Z,6.7
2022-12-31T02:17:17.046Z,6.8
2022-12-31T02:19:47.813Z,6.9
2022-12-31T02:22:18.656Z,6.9
2022-12-31T02:24:49.898Z,7.0
2022-12-31T02:27:20.723Z,7.0
2022-12-31T02:29:51.482Z,7.0
2022-12-31T02:32:32.259Z,7.0
2022-12-31T02:35:03.024Z,7.1
2022-12-31T02:37:33.820Z,7.2
2022-12-31T02:40:04.589Z,7.2
2022-12-31T02:42:35.342Z,7.2
2022-12-31T02:45:22.102Z,7.2
2022-12-31T02:47:52.870Z,7.1
2022-12-31T02:52:53.807Z,7.0
2022-12-31T02:55:24.588Z,7.0
2022-12-31T02:57:55.352Z,7.0
2022-12-31T03:00:36.167Z,7.0
2022-12-31T03:03:07.116Z,7.2
2022-12-31T03:05:37.886Z,7.1
2022-12-31T03:08:08.632Z,7.1
2022-12-31T03:10:39.490Z,7.2
2022-12-31T03:13:10.245Z,7.2
2022-12-31T03:15:51.054Z,7.2
2022-12-31T03:18:21.954Z,7.2
2022-12-31T03:20:52.748Z,7.4
2022-12-31T03:23:23.540Z,7.3
2022-12-31T03:25:54.307Z,7.3
2022-12-31T03:28:25.071Z,7.4
2022-12-31T03:33:36.001Z,7.4
2022-12-31T03:36:06.877Z,7.2
2022-12-31T03:38:37.614Z,7.2
2022-12-31T03:41:03.239Z,7.3
2022-12-31T03:43:44.008Z,7.2
2022-12-31T03:46:14.869Z,7.2
2022-12-31T03:48:45.649Z,7.2
2022-12-31T03:51:16.420Z,7.1
2022-12-31T03:53:47.162Z,7.0
2022-12-31T03:56:17.975Z,7.0
2022-12-31T03:58:58.787Z,7.0
2022-12-31T04:01:29.685Z,6.9
2022-12-31T04:04:00.741Z,6.9
2022-12-31T04:06:31.493Z,6.9
2022-12-31T04:09:02.257Z,7.0
2022-12-31T04:14:13.168Z,7.0
2022-12-31T04:16:43.979Z,7.0
2022-12-31T04:19:14.721Z,7.0
2022-12-31T04:21:45.579Z,7.0
2022-12-31T04:24:16.352Z,7.1
2022-12-31T04:26:47.152Z,7.0
2022-12-31T04:29:34.161Z,6.9
2022-12-31T04:32:05.004Z,6.9
2022-12-31T04:34:35.848Z,7.0
2022-12-31T04:37:06.587Z,7.0
2022-12-31T04:42:07.507Z,7.2
2022-12-31T04:44:48.285Z,7.1
2022-12-31T04:47:23.518Z,7.2
2022-12-31T04:49:44.618Z,7.2
2022-12-31T04:54:45.834Z,7.2
2022-12-31T04:57:16.592Z,7.2
2022-12-31T04:59:57.399Z,7.2
2022-12-31T05:02:28.295Z,7.2
2022-12-31T05:04:59.825Z,7.2
2022-12-31T05:07:30.621Z,7.2
2022-12-31T05:10:01.412Z,7.3
2022-12-31T05:12:42.217Z,7.3
2022-12-31T05:15:13.053Z,7.3
2022-12-31T05:17:43.862Z,7.3
2022-12-31T05:20:14.628Z,7.4
2022-12-31T05:22:45.397Z,7.4
2022-12-31T05:25:16.096Z,7.4
2022-12-31T05:27:56.891Z,7.4
2022-12-31T05:30:27.783Z,7.6
2022-12-31T05:35:28.837Z,7.7
2022-12-31T05:37:59.598Z,7.7
2022-12-31T05:43:10.523Z,7.7
2022-12-31T05:45:41.736Z,7.7
2022-12-31T05:48:12.677Z,7.8
2022-12-31T05:50:43.460Z,7.8
2022-12-31T05:53:14.212Z,7.7
2022-12-31T05:55:44.972Z,7.8
2022-12-31T05:58:25.759Z,7.9
2022-12-31T06:00:56.618Z,8.0
2022-12-31T06:03:27.744Z,7.9
2022-12-31T06:05:58.631Z,8.1
2022-12-31T06:08:29.399Z,8.0
2022-12-31T06:11:00.225Z,8.2
2022-12-31T06:16:11.245Z,8.3
2022-12-31T06:18:42.094Z,8.3
2022-12-31T06:21:12.868Z,8.2
2022-12-31T06:23:43.622Z,8.2
2022-12-31T06:26:24.445Z,8.4
2022-12-31T06:28:55.209Z,8.3
2022-12-31T06:31:26.106Z,8.3
2022-12-31T06:33:56.970Z,8.3
2022-12-31T06:36:27.763Z,8.2
2022-12-31T06:38:58.577Z,8.1
2022-12-31T06:41:39.408Z,8.1
2022-12-31T06:44:10.201Z,8.1
2022-12-31T06:46:41.007Z,8.0
2022-12-31T06:49:11.915Z,8.0
2022-12-31T06:51:42.655Z,8.0
2022-12-31T06:56:53.609Z,8.2
2022-12-31T06:59:24.391Z,8.0
2022-12-31T07:01:55.176Z,8.1
2022-12-31T07:04:26.337Z,8.2
2022-12-31T07:06:57.138Z,8.3
2022-12-31T07:09:27.899Z,8.2
2022-12-31T07:12:08.690Z,8.2
2022-12-31T07:14:39.433Z,8.1
2022-12-31T07:17:10.194Z,8.2
2022-12-31T07:19:40.953Z,8.3
2022-12-31T07:22:18.041Z,8.3
2022-12-31T07:24:58.839Z,8.2
2022-12-31T07:27:29.647Z,8.1
2022-12-31T07:30:00.386Z,8.0
2022-12-31T07:32:31.157Z,8.0
2022-12-31T07:37:32.094Z,8.0
2022-12-31T07:40:12.936Z,8.2
2022-12-31T07:42:43.697Z,8.4
2022-12-31T07:45:14.453Z,8.4
2022-12-31T07:47:45.211Z,8.3
2022-12-31T07:50:12.653Z,8.5
2022-12-31T07:52:43.393Z,8.4
2022-12-31T07:55:24.188Z,8.5
2022-12-31T07:57:54.965Z,8.6
2022-12-31T08:00:25.813Z,8.6
2022-12-31T08:02:56.803Z,8.6
2022-12-31T08:05:27.798Z,8.6
2022-12-31T08:07:58.549Z,8.6
2022-12-31T08:10:39.372Z,8.7
2022-12-31T08:13:10.187Z,8.6
2022-12-31T08:18:11.099Z,8.5
2022-12-31T08:20:41.915Z,8.5
2022-12-31T08:23:12.652Z,8.5
2022-12-31T08:25:53.427Z,8.4
2022-12-31T08:28:24.226Z,8.5
2022-12-31T08:30:54.965Z,8.5
2022-12-31T08:33:25.779Z,8.4
2022-12-31T08:35:56.610Z,8.4
2022-12-31T08:38:37.360Z,8.4
2022-12-31T08:41:08.172Z,8.6
2022-12-31T08:43:38.941Z,8.5
2022-12-31T08:46:09.803Z,8.5
2022-12-31T08:48:40.774Z,8.4
2022-12-31T08:51:11.589Z,8.4
2022-12-31T08:53:52.342Z,8.4
2022-12-31T08:58:53.249Z,8.4
2022-12-31T09:01:24.075Z,8.5
2022-12-31T09:03:55.155Z,8.5
2022-12-31T09:06:26.031Z,8.5
2022-12-31T09:09:06.802Z,8.6
2022-12-31T09:11:37.663Z,8.7
2022-12-31T09:14:08.400Z,8.8
2022-12-31T09:16:39.210Z,8.9
2022-12-31T09:19:10.140Z,9.1
2022-12-31T09:21:40.917Z,9.3
2022-12-31T09:24:21.684Z,9.5
2022-12-31T09:26:52.480Z,9.6
2022-12-31T09:29:23.242Z,9.7
2022-12-31T09:31:54.055Z,9.8
2022-12-31T09:34:24.916Z,9.8
2022-12-31T09:39:35.856Z,9.8
2022-12-31T09:42:06.633Z,9.8
2022-12-31T09:44:37.413Z,9.8
2022-12-31T09:47:08.220Z,9.8
2022-12-31T09:49:39.111Z,9.8
2022-12-31T09:52:19.870Z,9.8
2022-12-31T09:54:50.813Z,10.0
2022-12-31T09:57:21.595Z,9.9
2022-12-31T09:59:52.378Z,10.0
2022-12-31T10:02:23.358Z,10.0
2022-12-31T10:04:54.680Z,10.0
2022-12-31T10:07:35.477Z,10.0
2022-12-31T10:10:02.950Z,10.0
2022-12-31T10:12:33.766Z,10.0
2022-12-31T10:15:04.513Z,9.9
2022-12-31T10:20:05.429Z,9.9
2022-12-31T10:22:46.239Z,9.9
2022-12-31T10:25:17.023Z,9.9
2022-12-31T10:27:51.392Z,9.9
2022-12-31T10:30:22.161Z,9.9
2022-12-31T10:32:53.190Z,9.9
2022-12-31T10:35:23.988Z,9.8
2022-12-31T10:38:04.746Z,9.9
2022-12-31T10:40:35.535Z,10.0
2022-12-31T10:43:06.287Z,10.0
2022-12-31T10:45:37.073Z,10.0
2022-12-31T10:48:07.950Z,10.0
2022-12-31T10:50:38.696Z,10.1
2022-12-31T10:53:19.413Z,10.2
2022-12-31T10:55:50.176Z,10.1
2022-12-31T11:00:51.094Z,10.1
2022-12-31T11:03:27.165Z,10.1
2022-12-31T11:05:59.985Z,10.2
2022-12-31T11:08:30.758Z,10.2
2022-12-31T11:11:01.521Z,10.2
2022-12-31T11:13:32.280Z,10.3
2022-12-31T11:16:03.092Z,10.4
2022-12-31T11:18:34.055Z,10.4
2022-12-31T11:21:14.812Z,10.4
2022-12-31T11:23:52.034Z,10.6
2022-12-31T11:26:22.788Z,10.7
2022-12-31T11:28:53.545Z,10.7
2022-12-31T11:31:24.405Z,10.8
2022-12-31T11:33:55.281Z,10.8
2022-12-31T11:36:36.047Z,10.9
2022-12-31T11:41:37.020Z,11.1
2022-12-31T11:44:07.788Z,11.1
2022-12-31T11:46:38.668Z,11.1
2022-12-31T11:49:09.550Z,11.2
2022-12-31T11:51:50.869Z,11.1
2022-12-31T11:54:11.698Z,11.2
2022-12-31T11:59:22.631Z,11.3
2022-12-31T12:01:53.604Z,11.2
2022-12-31T12:04:34.379Z,11.3
2022-12-31T12:07:05.149Z,11.4
2022-12-31T12:09:35.927Z,11.4
2022-12-31T12:12:06.709Z,11.6
2022-12-31T12:14:37.455Z,11.5
2022-12-31T12:17:08.254Z,11.6
2022-12-31T12:22:19.155Z,11.8
2022-12-31T12:24:49.904Z,12.0
2022-12-31T12:27:20.710Z,12.1
2022-12-31T12:29:51.496Z,12.1
2022-12-31T12:32:22.332Z,12.1
2022-12-31T12:35:03.114Z,12.0
2022-12-31T12:37:33.865Z,12.0
2022-12-31T12:40:04.622Z,12.2
2022-12-31T12:42:33.670Z,12.0
2022-12-31T12:45:04.427Z,12.0
2022-12-31T12:47:35.245Z,12.0
2022-12-31T12:50:16.026Z,12.0
2022-12-31T12:52:46.826Z,12.0
2022-12-31T12:55:10.273Z,12.1
2022-12-31T12:57:41.036Z,12.2
2022-12-31T13:02:52.018Z,12.2
2022-12-31T13:05:27.782Z,12.3
2022-12-31T13:07:58.805Z,12.2
2022-12-31T13:10:29.617Z,12.3
2022-12-31T13:13:24.759Z,12.2
2022-12-31T13:15:35.919Z,12.3
2022-12-31T13:18:16.783Z,12.2
2022-12-31T13:20:47.523Z,12.2
2022-12-31T13:23:18.282Z,12.3
2022-12-31T13:28:10.564Z,12.3
2022-12-31T13:30:41.380Z,12.3
2022-12-31T13:33:26.836Z,12.3
2022-12-31T13:35:57.588Z,12.3
2022-12-31T13:38:28.353Z,12.2
2022-12-31T13:43:29.270Z,12.2
2022-12-31T13:46:01.582Z,12.2
2022-12-31T13:48:42.455Z,12.2
2022-12-31T13:51:13.284Z,12.0
2022-12-31T13:53:44.047Z,12.0
2022-12-31T13:56:15.035Z,11.9
2022-12-31T13:58:45.753Z,11.8
2022-12-31T14:01:16.588Z,11.8
2022-12-31T14:03:54.114Z,11.8
2022-12-31T14:06:24.893Z,11.7
2022-12-31T14:08:55.627Z,11.7
2022-12-31T14:11:26.399Z,11.8
2022-12-31T14:13:57.146Z,11.7
2022-12-31T14:16:27.931Z,11.7
2022-12-31T14:19:08.835Z,11.7
2022-12-31T14:24:14.723Z,11.6
2022-12-31T14:26:45.492Z,11.5
2022-12-31T14:29:16.235Z,11.5
2022-12-31T14:31:57.112Z,11.5
2022-12-31T14:34:27.892Z,11.4
2022-12-31T14:36:58.680Z,11.4
2022-12-31T14:39:29.450Z,11.3
2022-12-31T14:42:00.241Z,11.2
2022-12-31T14:44:30.996Z,11.2
2022-12-31T14:47:11.751Z,11.2
2022-12-31T14:49:42.517Z,11.0
2022-12-31T14:52:13.432Z,10.8
2022-12-31T14:54:44.193Z,10.6
2022-12-31T14:57:14.951Z,10.4
2022-12-31T14:59:42.041Z,10.3
2022-12-31T15:04:53.082Z,10.0
2022-12-31T15:07:23.851Z,9.9
2022-12-31T15:09:54.599Z,9.6
2022-12-31T15:12:25.379Z,9.6
2022-12-31T15:14:56.157Z,9.5
2022-12-31T15:17:36.918Z,9.3
2022-12-31T15:20:11.622Z,9.3
2022-12-31T15:22:35.726Z,9.2
2022-12-31T15:25:06.498Z,9.2
2022-12-31T15:27:37.367Z,9.0
2022-12-31T15:30:18.172Z,9.0
2022-12-31T15:32:48.972Z,8.9
2022-12-31T15:35:19.729Z,8.8
2022-12-31T15:37:50.486Z,8.7
2022-12-31T15:40:21.289Z,8.7
2022-12-31T15:45:32.250Z,8.6
2022-12-31T15:48:03.143Z,8.5
2022-12-31T15:50:33.929Z,8.5
2022-12-31T15:53:04.687Z,8.4
2022-12-31T15:55:35.477Z,8.3
2022-12-31T16:00:46.421Z,8.1
2022-12-31T16:03:17.657Z,8.1
2022-12-31T16:05:48.693Z,8.0
2022-12-31T16:08:19.442Z,7.9
2022-12-31T16:10:50.223Z,7.8
2022-12-31T16:13:20.961Z,7.7
2022-12-31T16:16:01.750Z,7.7
2022-12-31T16:18:32.588Z,7.8
2022-12-31T16:21:03.408Z,7.9
2022-12-31T16:26:04.369Z,8.0
2022-12-31T16:28:35.130Z,8.0
2022-12-31T16:31:15.926Z,8.0
2022-12-31T16:33:46.855Z,8.0
2022-12-31T16:36:17.636Z,7.9
2022-12-31T16:38:48.437Z,8.0
2022-12-31T16:41:19.291Z,8.0
2022-12-31T16:44:00.060Z,8.0
2022-12-31T16:46:31.006Z,7.9
2022-12-31T16:49:01.915Z,7.9
2022-12-31T16:51:32.742Z,8.0
2022-12-31T16:54:03.491Z,8.0
2022-12-31T16:56:39.290Z,8.0
2022-12-31T16:59:22.268Z,8.0
2022-12-31T17:01:46.365Z,8.0
2022-12-31T17:06:47.812Z,8.0
2022-12-31T17:09:18.564Z,8.0
2022-12-31T17:11:49.399Z,8.0
2022-12-31T17:14:30.170Z,8.0
2022-12-31T17:17:02.448Z,7.9
2022-12-31T17:19:34.341Z,7.6
2022-12-31T17:22:05.163Z,7.5
2022-12-31T17:24:34.576Z,7.3
2022-12-31T17:27:05.392Z,7.3
2022-12-31T17:29:46.214Z,7.2
2022-12-31T17:32:17.067Z,7.2
2022-12-31T17:34:47.860Z,7.2
2022-12-31T17:37:18.712Z,7.2
2022-12-31T17:39:49.526Z,7.2
2022-12-31T17:47:31.850Z,7.4
2022-12-31T17:50:02.620Z,7.2
2022-12-31T17:52:33.417Z,7.3
2022-12-31T17:55:04.166Z,7.3
2022-12-31T17:57:45.050Z,7.3
2022-12-31T18:00:15.825Z,7.2
2022-12-31T18:02:46.743Z,7.2
2022-12-31T18:05:17.665Z,7.3
2022-12-31T18:07:48.442Z,7.5
2022-12-31T18:10:19.211Z,7.4
2022-12-31T18:13:00.022Z,7.4
2022-12-31T18:15:30.814Z,7.4
2022-12-31T18:18:01.589Z,7.5
2022-12-31T18:20:35.922Z,7.5
2022-12-31T18:23:06.679Z,7.4
2022-12-31T18:28:17.591Z,7.2
2022-12-31T18:30:48.342Z,7.2
2022-12-31T18:33:19.382Z,7.1
2022-12-31T18:36:08.061Z,7.1
2022-12-31T18:38:19.534Z,7.2
2022-12-31T18:40:50.408Z,7.2
2022-12-31T18:43:31.193Z,7.1
2022-12-31T18:46:01.967Z,7.1
2022-12-31T18:48:32.775Z,7.2
2022-12-31T18:51:03.586Z,7.2
2022-12-31T18:53:31.410Z,7.1
2022-12-31T18:58:42.310Z,7.0
2022-12-31T19:01:13.202Z,7.0
2022-12-31T19:03:44.421Z,7.0
2022-12-31T19:08:45.312Z,7.0
2022-12-31T19:11:33.815Z,6.9
2022-12-31T19:14:04.588Z,6.8
2022-12-31T19:16:35.385Z,6.8
2022-12-31T19:19:08.662Z,6.7
2022-12-31T19:21:29.559Z,6.7
2022-12-31T19:24:00.317Z,6.7
2022-12-31T19:26:43.398Z,6.6
2022-12-31T19:29:14.293Z,6.5
2022-12-31T19:31:45.138Z,6.6
2022-12-31T19:34:16.123Z,6.7
2022-12-31T19:36:46.912Z,6.8
2022-12-31T19:39:17.670Z,6.8
2022-12-31T19:41:59.286Z,6.7
2022-12-31T19:44:30.390Z,6.6
2022-12-31T19:49:31.321Z,6.5
2022-12-31T19:52:02.081Z,6.5
2022-12-31T19:54:32.852Z,6.5
2022-12-31T19:57:13.656Z,6.5
2022-12-31T19:59:44.445Z,6.5
2022-12-31T20:02:15.567Z,6.7
2022-12-31T20:04:46.953Z,6.6
2022-12-31T20:07:20.872Z,6.6
2022-12-31T20:09:52.960Z,6.7
2022-12-31T20:15:03.905Z,6.7
2022-12-31T20:17:24.650Z,6.7
2022-12-31T20:20:05.430Z,6.6
2022-12-31T20:22:36.215Z,6.5
2022-12-31T20:25:17.037Z,6.5
2022-12-31T20:30:17.966Z,6.5
2022-12-31T20:32:48.856Z,6.4
2022-12-31T20:35:13.514Z,6.4
2022-12-31T20:37:44.263Z,6.4
2022-12-31T20:40:25.088Z,6.3
2022-12-31T20:42:57.579Z,6.3
2022-12-31T20:45:28.371Z,6.3
2022-12-31T20:47:59.174Z,6.3
2022-12-31T20:50:30.013Z,6.3
2022-12-31T20:53:00.799Z,6.3
2022-12-31T20:55:41.668Z,6.2
2022-12-31T20:58:12.433Z,6.3
2022-12-31T21:00:43.248Z,6.4
2022-12-31T21:03:24.012Z,6.3
2022-12-31T21:05:47.260Z,6.3
2022-12-31T21:10:58.604Z,6.2
2022-12-31T21:13:29.378Z,6.2
2022-12-31T21:16:00.213Z,6.1
2022-12-31T21:18:31.021Z,6.1
2022-12-31T21:21:01.807Z,6.1
2022-12-31T21:23:32.612Z,6.1
2022-12-31T21:26:13.430Z,6.1
2022-12-31T21:28:44.204Z,6.0
2022-12-31T21:31:15.051Z,6.0
2022-12-31T21:33:45.984Z,6.0
2022-12-31T21:36:16.794Z,6.1
2022-12-31T21:38:57.570Z,6.2
2022-12-31T21:41:32.909Z,6.3
2022-12-31T21:43:54.013Z,6.3
2022-12-31T21:46:24.777Z,6.3
2022-12-31T21:51:26.491Z,6.4
2022-12-31T21:54:07.237Z,6.4
2022-12-31T21:56:37.975Z,6.4
2022-12-31T21:59:08.745Z,6.4
2022-12-31T22:01:39.677Z,6.4
2022-12-31T22:04:28.422Z,6.4
2022-12-31T22:06:41.906Z,6.4
2022-12-31T22:09:22.664Z,6.4
2022-12-31T22:11:53.437Z,6.4
2022-12-31T22:14:24.259Z,6.4
2022-12-31T22:16:55.235Z,6.3
2022-12-31T22:19:25.988Z,6.3
2022-12-31T22:21:57.863Z,6.4
2022-12-31T22:24:38.650Z,6.4
2022-12-31T22:27:29.031Z,6.4
2022-12-31T22:32:08.071Z,6.9
2022-12-31T22:34:38.822Z,7.0
2022-12-31T22:37:35.586Z,6.9
2022-12-31T22:39:52.448Z,6.8
2022-12-31T22:42:23.220Z,6.9
2022-12-31T22:44:53.999Z,6.8
2022-12-31T22:47:24.744Z,6.7
2022-12-31T22:49:55.512Z,6.5
2022-12-31T22:52:36.287Z,6.4
2022-12-31T22:55:07.060Z,6.3
2022-12-31T22:57:37.871Z,6.2
2022-12-31T23:00:08.676Z,6.1
2022-12-31T23:02:41.877Z,6.0
2022-12-31T23:05:14.704Z,5.9
2022-12-31T23:07:56.930Z,5.9
2022-12-31T23:12:57.856Z,5.8
2022-12-31T23:15:28.656Z,5.8
2022-12-31T23:17:59.535Z,5.8
2022-12-31T23:20:30.390Z,5.6
2022-12-31T23:23:11.161Z,5.6
2022-12-31T23:25:41.932Z,5.5
2022-12-31T23:28:12.683Z,5.4
2022-12-31T23:30:43.461Z,5.4
2022-12-31T23:33:14.324Z,5.5
2022-12-31T23:35:45.110Z,5.4
2022-12-31T23:38:25.874Z,5.3
2022-12-31T23:40:56.715Z,5.3
2022-12-31T23:43:27.498Z,5.3
2022-12-31T23:45:58.298Z,5.3
2022-12-31T23:48:29.098Z,5.2
2022-12-31T23:53:39.985Z,5.2
2022-12-31T23:56:14.944Z,5.1
2022-12-31T23:58:38.270Z,5.2
